Eden, Idaho
Current Conditions -  °F | °C
As of 6:53 AM on Wednesday 22 Oct 2014 (Local Time) from KJER Reporting Station
Clear Clear  
Wind Chill: 30°   Ceiling: Unl
Heat Index: 37°   Visibility: 10mi
Dew Point: 30°   Wind: 10mph
Humidity: 76%   Direction: 70°ENE
Pressure: 30.14"   Gusts: NA
Location:  42.61°N, 114.21°W
Report Text: KJER 221253Z AUTO 07009KT 10SM CLR 03/M01 A3014 RMK AO2 SLP210 T00281011
Loading
Personal Weather Stations






























Interactive Weather Map
Tropical Storm Tracking
New forecast layout! Learn more

10-Day Weather Forecast

Advertisements
Track Severe Weather on mobile